Time;durP1;ratioP1;P1;durP2;ratioP2;P2;SDS_P1;SDS_P2;PMS_P1;PMS_P2;Temp;Humidity;BMP_temperature;BMP_pressure;BME280_temperature;BME280_humidity;BME280_pressure;Samples;Min_cycle;Max_cycle;Signal;HPM_P1;HPM_P2
2021/03/10 00:00:28;;;;;;;0.38;0.38;;;2.70;99.90;;;;;;4969044;28;20033;-86
2021/03/10 00:02:54;;;;;;;0.52;0.52;;;2.70;99.90;;;;;;4969486;28;20876;-86
2021/03/10 00:05:20;;;;;;;0.95;0.95;;;2.60;99.90;;;;;;4969060;28;20038;-86
2021/03/10 00:07:46;;;;;;;0.52;0.52;;;2.80;99.90;;;;;;4962457;28;20763;-86
2021/03/10 00:10:12;;;;;;;1.27;1.25;;;2.70;99.90;;;;;;4963670;28;20023;-86
2021/03/10 00:12:39;;;;;;;1.27;1.17;;;2.40;99.90;;;;;;4968673;28;20066;-86
2021/03/10 00:15:07;;;;;;;0.70;0.70;;;2.40;99.90;;;;;;4967601;28;20101;-86
2021/03/10 00:17:33;;;;;;;3.60;1.30;;;2.50;99.90;;;;;;4968745;28;20462;-87
2021/03/10 00:20:00;;;;;;;1.05;0.95;;;2.30;99.90;;;;;;4970293;28;20054;-86
2021/03/10 00:22:25;;;;;;;0.87;0.70;;;2.40;99.90;;;;;;4972954;28;20031;-87
2021/03/10 00:24:51;;;;;;;0.70;0.70;;;2.40;99.90;;;;;;4973115;28;20022;-87
2021/03/10 00:27:24;;;;;;;0.93;0.88;;;2.40;99.90;;;;;;4972260;28;20042;-90
2021/03/10 00:29:55;;;;;;;5.80;1.88;;;2.30;99.90;;;;;;4971627;28;20085;-89
2021/03/10 00:32:22;;;;;;;0.90;0.90;;;2.20;99.90;;;;;;4971959;28;20478;-90
2021/03/10 00:34:48;;;;;;;0.40;0.40;;;2.10;99.90;;;;;;4972044;28;20031;-87
2021/03/10 00:37:15;;;;;;;2.00;1.67;;;2.00;99.90;;;;;;4972412;28;20086;-89
2021/03/10 00:39:40;;;;;;;;;;;2.00;99.90;;;;;;4972002;28;20039;-89
2021/03/10 00:42:07;;;;;;;1.50;1.40;;;2.10;99.90;;;;;;4975640;28;20433;-89
2021/03/10 00:44:32;;;;;;;1.60;1.50;;;2.10;99.90;;;;;;4972724;28;20093;-88
2021/03/10 00:46:58;;;;;;;1.23;1.23;;;1.90;99.90;;;;;;4972292;28;20039;-89
2021/03/10 00:49:24;;;;;;;1.08;1.00;;;1.80;99.90;;;;;;4972659;28;20038;-90
2021/03/10 00:51:50;;;;;;;0.88;0.88;;;1.70;99.90;;;;;;4971942;28;20500;-89
2021/03/10 00:54:15;;;;;;;1.08;0.95;;;2.00;99.90;;;;;;4968000;28;20035;-89
2021/03/10 00:56:41;;;;;;;0.93;0.90;;;1.90;99.90;;;;;;4965959;28;20030;-90
2021/03/10 00:59:07;;;;;;;0.85;0.73;;;1.70;99.90;;;;;;4967840;28;20078;-90
2021/03/10 01:01:33;;;;;;;2.55;1.70;;;1.60;99.90;;;;;;4960282;28;20469;-89
2021/03/10 01:03:58;;;;;;;0.25;0.25;;;1.60;99.90;;;;;;4952194;28;20093;-90
2021/03/10 01:06:25;;;;;;;0.75;0.75;;;1.40;99.90;;;;;;4964468;28;20114;-90
2021/03/10 01:08:51;;;;;;;3.63;1.33;;;1.40;99.90;;;;;;4969666;28;20491;-90
2021/03/10 01:11:18;;;;;;;0.43;0.43;;;1.20;99.90;;;;;;4961151;28;20027;-90
2021/03/10 01:13:45;;;;;;;0.88;0.88;;;1.10;99.90;;;;;;4970273;28;20059;-90
2021/03/10 01:16:11;;;;;;;0.68;0.60;;;1.10;99.90;;;;;;4972544;28;20023;-90
2021/03/10 01:18:37;;;;;;;0.68;0.68;;;1.20;99.90;;;;;;4971870;28;20039;-90
2021/03/10 01:21:03;;;;;;;3.78;2.30;;;1.50;99.90;;;;;;4972786;28;20026;-90
2021/03/10 01:23:29;;;;;;;2.65;2.50;;;1.70;99.90;;;;;;4963239;28;20460;-90
2021/03/10 01:25:55;;;;;;;0.20;0.20;;;1.50;99.90;;;;;;4965813;28;20125;-89
2021/03/10 01:28:21;;;;;;;1.77;1.67;;;1.40;99.90;;;;;;4971805;28;20095;-90
2021/03/10 01:30:47;;;;;;;0.82;0.82;;;1.30;99.90;;;;;;4960156;28;20086;-90
2021/03/10 01:33:13;;;;;;;0.73;0.50;;;1.20;99.90;;;;;;4968468;28;20027;-90
2021/03/10 01:35:39;;;;;;;0.28;0.28;;;1.00;99.90;;;;;;4968069;28;20062;-89
2021/03/10 01:38:05;;;;;;;1.20;1.10;;;0.90;99.90;;;;;;4970066;28;20598;-89
2021/03/10 01:40:31;;;;;;;0.30;0.30;;;1.10;99.90;;;;;;4970086;28;20023;-89
2021/03/10 01:43:02;;;;;;;2.05;1.95;;;1.20;99.90;;;;;;4970851;28;20106;-89
2021/03/10 01:45:28;;;;;;;0.50;0.50;;;1.30;99.90;;;;;;4970687;28;20046;-89
2021/03/10 01:47:54;;;;;;;0.88;0.88;;;1.40;99.90;;;;;;4970567;28;20047;-89
2021/03/10 01:50:21;;;;;;;1.90;1.65;;;1.30;99.90;;;;;;4958548;28;20023;-88
2021/03/10 01:52:47;;;;;;;0.22;0.22;;;1.10;99.90;;;;;;4970352;28;20034;-89
2021/03/10 01:55:13;;;;;;;3.28;1.83;;;1.00;99.90;;;;;;4959346;28;20636;-88
2021/03/10 01:57:39;;;;;;;0.85;0.47;;;1.10;99.90;;;;;;4968534;28;20027;-89
2021/03/10 02:00:08;;;;;;;1.10;1.10;;;1.00;99.90;;;;;;4971537;28;20027;-89
2021/03/10 02:02:34;;;;;;;0.50;0.50;;;0.90;99.90;;;;;;4970296;28;20400;-89
2021/03/10 02:05:01;;;;;;;0.30;0.30;;;0.70;99.90;;;;;;4969798;28;20055;-88
2021/03/10 02:07:45;;;;;;;0.30;0.28;;;0.80;99.90;;;;;;4970938;28;20119;-88
2021/03/10 02:10:37;;;;;;;4.90;1.40;;;0.90;99.90;;;;;;4960515;28;20031;-88
2021/03/10 02:13:21;;;;;;;0.20;0.20;;;0.90;99.90;;;;;;4965498;28;20431;-90
2021/03/10 02:16:01;;;;;;;0.85;0.85;;;0.80;99.90;;;;;;4963102;28;20023;-89
2021/03/10 02:18:43;;;;;;;3.83;1.20;;;0.80;99.90;;;;;;4951625;28;20027;-88
2021/03/10 02:21:37;;;;;;;0.40;0.40;;;0.90;99.90;;;;;;4963750;28;20037;-88
2021/03/10 02:24:25;;;;;;;0.63;0.63;;;1.10;99.90;;;;;;4969482;28;20035;-88
2021/03/10 02:27:32;;;;;;;0.77;0.77;;;1.10;99.90;;;;;;4970196;28;20027;-89
2021/03/10 02:30:05;;;;;;;;;;;0.80;99.90;;;;;;4970771;28;20039;-88
2021/03/10 02:32:34;;;;;;;0.30;0.30;;;0.80;99.90;;;;;;4969815;28;19993;-89
2021/03/10 02:35:01;;;;;;;1.85;1.73;;;0.50;99.90;;;;;;4969902;28;20111;-89
2021/03/10 02:37:29;;;;;;;0.43;0.43;;;0.70;99.90;;;;;;4970362;28;20031;-89
2021/03/10 02:39:57;;;;;;;1.50;1.40;;;0.70;99.90;;;;;;4969748;28;20080;-89
2021/03/10 02:42:24;;;;;;;1.30;0.75;;;0.90;99.90;;;;;;4968912;28;20030;-89
2021/03/10 02:44:50;;;;;;;1.05;1.05;;;0.90;99.90;;;;;;4967601;28;20517;-89
2021/03/10 02:47:16;;;;;;;0.50;0.50;;;1.10;99.90;;;;;;4969281;28;20038;-89
2021/03/10 02:49:43;;;;;;;0.95;0.95;;;1.20;99.90;;;;;;4970381;28;20435;-89
2021/03/10 02:52:10;;;;;;;0.38;0.38;;;1.20;99.90;;;;;;4969211;28;20062;-89
2021/03/10 02:54:37;;;;;;;1.38;1.27;;;1.30;99.90;;;;;;4970002;28;20039;-89
2021/03/10 02:57:03;;;;;;;;;;;1.30;99.90;;;;;;4970458;28;20579;-89
2021/03/10 02:59:30;;;;;;;3.17;2.97;;;1.10;99.90;;;;;;4970563;28;19910;-89
2021/03/10 03:01:56;;;;;;;3.28;1.55;;;0.80;99.90;;;;;;4968510;28;20030;-90
2021/03/10 03:04:22;;;;;;;2.30;0.90;;;0.60;99.90;;;;;;4970111;28;20027;-89
2021/03/10 03:06:48;;;;;;;0.93;0.93;;;0.70;99.90;;;;;;4968055;28;20038;-89
2021/03/10 03:09:14;;;;;;;1.55;0.80;;;0.60;99.90;;;;;;4965673;28;20414;-90
2021/03/10 03:11:40;;;;;;;0.20;0.20;;;0.40;99.90;;;;;;4970321;28;20022;-90
2021/03/10 03:14:08;;;;;;;0.68;0.68;;;0.40;99.90;;;;;;4969348;28;20286;-90
2021/03/10 03:16:34;;;;;;;0.30;0.30;;;0.40;99.90;;;;;;4970899;28;20038;-89
2021/03/10 03:19:01;;;;;;;2.45;1.20;;;0.40;99.90;;;;;;4969524;28;20386;-89
2021/03/10 03:21:28;;;;;;;1.88;1.77;;;0.40;99.90;;;;;;4969549;28;20093;-89
2021/03/10 03:23:54;;;;;;;0.57;0.53;;;0.30;99.90;;;;;;4969874;28;20522;-89
2021/03/10 03:26:20;;;;;;;0.30;0.30;;;0.20;99.90;;;;;;4967778;28;20725;-89
2021/03/10 03:28:46;;;;;;;0.97;0.97;;;0.20;99.90;;;;;;4968201;28;20043;-89
2021/03/10 03:31:16;;;;;;;0.57;0.57;;;0.10;99.90;;;;;;4969708;28;20031;-90
2021/03/10 03:33:43;;;;;;;0.68;0.68;;;0.20;99.90;;;;;;4970497;28;20529;-91
2021/03/10 03:36:09;;;;;;;4.05;1.80;;;0.10;99.90;;;;;;4969348;28;20058;-90
2021/03/10 03:38:37;;;;;;;5.10;1.98;;;0.10;99.90;;;;;;4959129;28;20031;-90
2021/03/10 03:41:03;;;;;;;3.10;1.27;;;0.00;99.90;;;;;;4957201;28;20122;-90
2021/03/10 03:43:30;;;;;;;0.40;0.40;;;0.00;99.90;;;;;;4967485;28;20093;-90
2021/03/10 03:45:56;;;;;;;1.05;1.05;;;0.00;99.90;;;;;;4967660;28;20034;-89
2021/03/10 03:48:22;;;;;;;0.50;0.50;;;-0.20;99.90;;;;;;4967731;28;20023;-90
2021/03/10 03:50:48;;;;;;;0.47;0.47;;;-0.20;99.90;;;;;;4969337;28;20038;-90
2021/03/10 03:53:14;;;;;;;1.20;1.20;;;-0.10;99.90;;;;;;4969957;28;20023;-90
2021/03/10 03:55:43;;;;;;;0.20;0.20;;;-0.10;99.90;;;;;;4970139;28;20033;-90
2021/03/10 03:58:09;;;;;;;6.50;2.58;;;-0.30;99.90;;;;;;4973403;28;20023;-89
2021/03/10 04:00:35;;;;;;;0.50;0.50;;;-0.10;99.90;;;;;;4972761;28;20038;-89
2021/03/10 04:03:02;;;;;;;0.63;0.63;;;-0.20;99.90;;;;;;4973262;28;20023;-90
2021/03/10 04:05:28;;;;;;;0.35;0.35;;;-0.20;99.90;;;;;;4972848;28;20034;-90
2021/03/10 04:07:59;;;;;;;1.08;1.02;;;-0.30;99.90;;;;;;4959836;28;20030;-90
2021/03/10 04:10:30;;;;;;;0.17;0.17;;;-0.10;99.90;;;;;;4965644;28;20066;-90
2021/03/10 04:12:57;;;;;;;2.38;1.45;;;-0.20;99.90;;;;;;4969580;28;20038;-90
2021/03/10 04:15:24;;;;;;;;;;;-0.20;99.90;;;;;;4973168;28;20040;-90
2021/03/10 04:17:50;;;;;;;;;;;-0.20;99.90;;;;;;4973164;28;19913;-91
2021/03/10 04:20:18;;;;;;;2.03;1.93;;;-0.30;99.90;;;;;;4973181;28;19914;-90
2021/03/10 04:22:44;;;;;;;0.88;0.88;;;-0.40;99.90;;;;;;4972501;28;20031;-90
2021/03/10 04:25:11;;;;;;;0.77;0.77;;;-0.40;99.90;;;;;;4971654;28;20054;-90
2021/03/10 04:27:38;;;;;;;1.42;1.40;;;-0.50;99.90;;;;;;4971349;28;20031;-90
2021/03/10 04:30:07;;;;;;;0.45;0.45;;;-0.40;99.90;;;;;;4972859;28;20023;-90
2021/03/10 04:32:33;;;;;;;0.95;0.95;;;-0.50;99.90;;;;;;4972299;28;20495;-90
2021/03/10 04:34:59;;;;;;;0.40;0.40;;;-0.50;99.90;;;;;;4972242;28;20109;-90
2021/03/10 04:37:24;;;;;;;1.27;1.05;;;-0.60;99.90;;;;;;4972944;28;20046;-90
2021/03/10 04:39:50;;;;;;;0.85;0.85;;;-0.70;99.90;;;;;;4972538;28;20542;-90
2021/03/10 04:42:16;;;;;;;0.43;0.43;;;-0.60;99.90;;;;;;4971303;28;20113;-90
2021/03/10 04:44:42;;;;;;;0.20;0.20;;;-0.60;99.90;;;;;;4968722;28;20640;-90
2021/03/10 04:47:08;;;;;;;0.43;0.43;;;-0.60;99.90;;;;;;4955717;28;20047;-90
2021/03/10 04:49:34;;;;;;;2.10;1.38;;;-0.50;99.90;;;;;;4961662;28;20053;-90
2021/03/10 04:51:59;;;;;;;1.48;1.42;;;-0.60;99.90;;;;;;4958846;28;20082;-90
2021/03/10 04:54:26;;;;;;;1.95;1.83;;;-0.60;99.90;;;;;;4971411;28;20023;-90
2021/03/10 04:56:52;;;;;;;0.75;0.75;;;-0.70;99.90;;;;;;4971620;28;20053;-90
2021/03/10 04:59:18;;;;;;;1.00;1.00;;;-0.80;99.90;;;;;;4966290;28;20058;-91
2021/03/10 05:01:44;;;;;;;0.22;0.22;;;-0.80;99.90;;;;;;4962298;28;20034;-90
2021/03/10 05:04:09;;;;;;;0.65;0.63;;;-0.90;99.90;;;;;;4972045;28;20030;-90
2021/03/10 05:06:35;;;;;;;0.90;0.90;;;-0.80;99.90;;;;;;4970159;28;20030;-90
2021/03/10 05:09:01;;;;;;;0.90;0.85;;;-0.70;99.90;;;;;;4970565;28;20030;-90
2021/03/10 05:11:27;;;;;;;0.50;0.50;;;-0.70;99.90;;;;;;4959997;28;20037;-90
2021/03/10 05:13:52;;;;;;;1.98;1.88;;;-0.70;99.90;;;;;;4964076;28;20147;-90
2021/03/10 05:16:18;;;;;;;2.95;1.08;;;-0.80;99.90;;;;;;4970638;28;20754;-90
2021/03/10 05:18:44;;;;;;;0.88;0.88;;;-1.00;99.90;;;;;;4969781;28;20026;-90
2021/03/10 05:21:11;;;;;;;0.90;0.90;;;-0.90;99.90;;;;;;4970124;28;20108;-89
2021/03/10 05:23:41;;;;;;;0.43;0.43;;;-1.00;99.90;;;;;;4971481;28;20045;-90
2021/03/10 05:26:09;;;;;;;1.20;1.20;;;-1.10;99.90;;;;;;4972023;28;20030;-90
2021/03/10 05:28:35;;;;;;;5.90;1.58;;;-1.00;99.90;;;;;;4963035;28;20122;-89
2021/03/10 05:31:01;;;;;;;0.73;0.73;;;-0.80;99.90;;;;;;4950484;28;20451;-90
2021/03/10 05:33:27;;;;;;;0.50;0.50;;;-0.80;99.90;;;;;;4971953;28;20082;-89
2021/03/10 05:35:52;;;;;;;1.48;1.40;;;-0.60;99.90;;;;;;4971425;28;20814;-89
2021/03/10 05:38:18;;;;;;;0.75;0.75;;;-0.70;99.90;;;;;;4969946;28;20023;-89
2021/03/10 05:40:44;;;;;;;1.90;1.60;;;-0.70;99.90;;;;;;4970311;28;20019;-89
2021/03/10 05:43:10;;;;;;;0.30;0.30;;;-0.90;99.90;;;;;;4969975;28;20134;-89
2021/03/10 05:45:36;;;;;;;0.40;0.40;;;-0.90;99.90;;;;;;4970816;28;20039;-90
2021/03/10 05:48:02;;;;;;;0.73;0.70;;;-1.00;99.90;;;;;;4969862;28;20106;-89
2021/03/10 05:50:27;;;;;;;0.93;0.93;;;-1.10;99.90;;;;;;4971085;28;20022;-91
2021/03/10 05:52:55;;;;;;;2.40;2.20;;;-1.00;99.90;;;;;;4971577;28;20023;-90
2021/03/10 05:55:22;;;;;;;0.40;0.40;;;-1.20;99.90;;;;;;4971066;28;20031;-90
2021/03/10 05:57:48;;;;;;;2.17;1.75;;;-1.20;99.90;;;;;;4962361;28;20104;-88
2021/03/10 06:00:16;;;;;;;0.55;0.55;;;-1.20;99.90;;;;;;4967381;28;20031;-87
2021/03/10 06:02:43;;;;;;;0.28;0.28;;;-1.20;99.90;;;;;;4969386;28;20039;-89
2021/03/10 06:05:22;;;;;;;;;;;-1.20;99.90;;;;;;4967780;28;20034;-87
2021/03/10 06:08:06;;;;;;;0.40;0.40;;;-1.10;99.90;;;;;;4959693;28;20001;-87
2021/03/10 06:10:48;;;;;;;0.30;0.30;;;-1.00;99.90;;;;;;4965161;28;20033;-88
2021/03/10 06:13:31;;;;;;;1.77;1.67;;;-1.10;99.90;;;;;;4957190;28;20059;-88
2021/03/10 06:15:59;;;;;;;0.52;0.52;;;-1.00;99.90;;;;;;4962103;28;20080;-87
2021/03/10 06:18:27;;;;;;;1.00;1.00;;;-1.00;99.90;;;;;;4967324;28;20065;-87
2021/03/10 06:21:22;;;;;;;0.50;0.50;;;-0.90;99.90;;;;;;4965224;28;20085;-86
2021/03/10 06:23:51;;;;;;;0.30;0.30;;;-1.00;99.90;;;;;;4961422;28;20043;-87
2021/03/10 06:26:22;;;;;;;1.88;1.77;;;-1.00;99.90;;;;;;4960632;28;20434;-87
2021/03/10 06:28:49;;;;;;;0.20;0.20;;;-0.90;99.90;;;;;;4958862;28;20408;-87
2021/03/10 06:31:16;;;;;;;1.08;1.05;;;-0.50;99.90;;;;;;4968325;28;20062;-87
2021/03/10 06:33:42;;;;;;;1.45;0.88;;;-0.60;99.90;;;;;;4961078;28;20102;-88
2021/03/10 06:36:08;;;;;;;0.90;0.70;;;-0.10;99.90;;;;;;4963914;28;20133;-89
2021/03/10 06:38:33;;;;;;;1.30;0.98;;;-0.40;99.90;;;;;;4965853;28;20117;-87
2021/03/10 06:40:59;;;;;;;0.30;0.30;;;0.00;99.90;;;;;;4967678;28;20034;-89
2021/03/10 06:43:39;;;;;;;3.20;2.38;;;1.00;99.90;;;;;;4965733;28;20027;-88
2021/03/10 06:46:31;;;;;;;2.58;1.52;;;1.80;99.90;;;;;;4958852;28;20165;-88
2021/03/10 06:49:03;;;;;;;1.10;1.10;;;2.20;99.90;;;;;;4959292;28;20042;-87
2021/03/10 06:51:31;;;;;;;0.73;0.73;;;2.10;99.90;;;;;;4959062;28;20101;-88
2021/03/10 06:53:58;;;;;;;0.52;0.52;;;2.40;99.90;;;;;;4968734;28;20033;-88
2021/03/10 06:56:29;;;;;;;0.30;0.30;;;2.90;99.90;;;;;;4966603;28;20027;-86
2021/03/10 06:59:03;;;;;;;0.75;0.75;;;3.40;99.90;;;;;;4968865;28;20125;-88
2021/03/10 07:01:36;;;;;;;0.40;0.40;;;3.20;99.90;;;;;;4955565;28;20023;-85
2021/03/10 07:04:03;;;;;;;0.90;0.90;;;3.60;99.90;;;;;;4964337;28;20037;-87
2021/03/10 07:06:30;;;;;;;0.20;0.20;;;4.00;99.90;;;;;;4959125;28;20035;-86
2021/03/10 07:08:57;;;;;;;4.07;2.13;;;4.60;99.90;;;;;;4967282;28;20038;-87
2021/03/10 07:11:24;;;;;;;0.65;0.65;;;4.20;99.90;;;;;;4956722;28;20026;-85
2021/03/10 07:13:50;;;;;;;1.80;1.70;;;3.90;99.90;;;;;;4950990;28;20058;-87
2021/03/10 07:16:16;;;;;;;1.35;1.00;;;4.40;99.90;;;;;;4961323;28;20035;-87
2021/03/10 07:18:44;;;;;;;1.35;0.68;;;4.40;99.90;;;;;;4969424;28;20035;-86
2021/03/10 07:21:11;;;;;;;3.55;2.20;;;4.70;99.90;;;;;;4958281;28;20022;-86
2021/03/10 07:23:50;;;;;;;3.80;1.40;;;4.60;99.90;;;;;;4966717;28;20046;-87
2021/03/10 07:26:18;;;;;;;1.00;1.00;;;4.80;99.90;;;;;;4961369;28;20042;-87
2021/03/10 07:28:53;;;;;;;1.25;1.15;;;5.20;99.90;;;;;;4967634;28;20177;-88
2021/03/10 07:31:22;;;;;;;2.05;0.60;;;5.10;99.90;;;;;;4959090;28;20526;-89
2021/03/10 07:34:06;;;;;;;1.17;1.17;;;5.50;99.90;;;;;;4953318;28;20804;-89
2021/03/10 07:36:43;;;;;;;1.00;1.00;;;5.90;99.90;;;;;;4958927;28;20035;-88
2021/03/10 07:39:31;;;;;;;;;;;5.90;99.90;;;;;;4967679;28;20038;-87
2021/03/10 07:42:13;;;;;;;0.45;0.45;;;6.00;99.90;;;;;;4966181;28;19910;-86
2021/03/10 07:44:39;;;;;;;1.90;1.15;;;6.10;99.90;;;;;;4959850;28;20042;-86
2021/03/10 07:47:11;;;;;;;0.90;0.90;;;6.70;99.90;;;;;;4964099;28;20062;-86
2021/03/10 07:49:38;;;;;;;0.75;0.75;;;7.10;99.90;;;;;;4964162;28;20030;-87
2021/03/10 07:52:03;;;;;;;;;;;7.10;99.90;;;;;;4968461;28;20031;-88
2021/03/10 07:54:29;;;;;;;1.73;1.63;;;6.90;99.90;;;;;;4982773;28;19909;-87
2021/03/10 07:57:15;;;;;;;0.60;0.60;;;7.30;99.90;;;;;;4966695;28;20693;-86
2021/03/10 07:59:57;;;;;;;1.55;1.20;;;7.60;99.90;;;;;;4957293;28;20392;-87
2021/03/10 08:02:25;;;;;;;0.35;0.35;;;7.60;99.90;;;;;;4964394;28;20031;-87
2021/03/10 08:05:02;;;;;;;1.55;1.30;;;7.70;99.90;;;;;;4962570;28;20652;-88
2021/03/10 08:07:32;;;;;;;2.60;2.40;;;7.90;99.90;;;;;;4960115;28;20037;-86
2021/03/10 08:09:58;;;;;;;2.17;1.55;;;8.10;99.90;;;;;;4956273;28;20034;-86
2021/03/10 08:12:35;;;;;;;1.58;1.48;;;8.10;99.90;;;;;;5462781;23;20486;-86
2021/03/10 08:15:03;;;;;;;1.45;1.13;;;8.50;99.90;;;;;;4985640;28;20038;-85
2021/03/10 08:17:30;;;;;;;1.23;1.00;;;8.80;99.90;;;;;;4988647;28;20030;-85
2021/03/10 08:20:01;;;;;;;0.82;0.82;;;8.90;99.90;;;;;;4986685;28;20109;-86
2021/03/10 08:22:29;;;;;;;0.88;0.88;;;9.00;99.90;;;;;;4985826;28;20552;-86
2021/03/10 08:24:56;;;;;;;0.55;0.55;;;9.30;99.90;;;;;;4980755;28;20594;-86
2021/03/10 08:27:36;;;;;;;0.88;0.88;;;9.60;99.90;;;;;;4987986;28;20074;-86
2021/03/10 08:30:05;;;;;;;1.20;1.08;;;9.80;99.90;;;;;;4981517;28;21702;-86
2021/03/10 08:32:33;;;;;;;3.10;1.75;;;10.30;99.90;;;;;;4985873;28;20094;-88
2021/03/10 08:35:17;;;;;;;1.08;1.02;;;10.70;99.90;;;;;;4984699;28;20030;-86
2021/03/10 08:37:51;;;;;;;1.55;1.48;;;10.30;99.90;;;;;;4987890;28;20038;-86
2021/03/10 08:40:20;;;;;;;2.28;1.33;;;10.90;99.90;;;;;;4984185;28;20114;-87
2021/03/10 08:42:46;;;;;;;1.48;1.38;;;10.70;99.90;;;;;;4983857;28;20392;-86
2021/03/10 08:45:22;;;;;;;4.88;1.63;;;10.90;99.90;;;;;;4990891;28;20022;-87
2021/03/10 08:47:57;;;;;;;1.98;1.38;;;11.10;99.90;;;;;;4981605;28;20061;-86
2021/03/10 08:50:33;;;;;;;2.25;2.15;;;11.80;99.90;;;;;;4990014;28;20022;-86
2021/03/10 08:52:59;;;;;;;0.43;0.43;;;12.20;99.90;;;;;;4990688;28;20026;-86
2021/03/10 08:55:26;;;;;;;1.13;1.02;;;13.60;99.90;;;;;;4985908;28;20023;-86
2021/03/10 08:57:53;;;;;;;2.42;1.25;;;13.40;99.90;;;;;;4990575;28;20022;-86
2021/03/10 09:00:25;;;;;;;2.00;1.65;;;13.00;99.90;;;;;;4990660;28;20030;-86
2021/03/10 09:02:58;;;;;;;1.75;1.65;;;13.80;99.90;;;;;;4991056;28;20034;-85
2021/03/10 09:05:26;;;;;;;1.50;1.40;;;13.40;99.90;;;;;;4987553;28;20037;-85
2021/03/10 09:07:52;;;;;;;1.98;1.77;;;14.40;99.90;;;;;;4984183;28;20038;-87
2021/03/10 09:10:21;;;;;;;0.50;0.50;;;15.30;99.90;;;;;;4986881;28;20019;-84
2021/03/10 09:12:49;;;;;;;1.92;1.27;;;15.40;99.90;;;;;;4961573;28;20038;-84
2021/03/10 09:15:17;;;;;;;1.60;1.50;;;15.10;99.90;;;;;;4970984;28;20026;-85
2021/03/10 09:17:43;;;;;;;1.17;1.08;;;15.00;99.90;;;;;;4971233;28;20034;-86
2021/03/10 09:20:20;;;;;;;0.85;0.85;;;15.40;99.90;;;;;;4971069;28;20056;-86
2021/03/10 09:22:46;;;;;;;1.80;1.50;;;15.70;99.90;;;;;;4970565;28;20031;-86
2021/03/10 09:25:17;;;;;;;1.40;1.40;;;17.00;99.90;;;;;;4970282;28;20274;-84
2021/03/10 09:27:43;;;;;;;1.10;0.90;;;14.60;99.90;;;;;;4970716;28;20545;-85
2021/03/10 09:30:12;;;;;;;2.13;1.23;;;16.50;99.90;;;;;;4970544;28;20027;-85
2021/03/10 09:32:47;;;;;;;2.70;1.05;;;17.10;99.90;;;;;;4969546;28;20050;-84
2021/03/10 09:35:28;;;;;;;1.00;1.00;;;17.50;99.90;;;;;;4963033;28;20042;-84
2021/03/10 09:37:57;;;;;;;0.88;0.88;;;17.50;99.90;;;;;;4970641;28;20037;-84
2021/03/10 09:40:35;;;;;;;1.02;1.02;;;19.40;99.90;;;;;;4968332;28;20686;-85
2021/03/10 09:43:03;;;;;;;0.77;0.77;;;21.70;99.90;;;;;;4970600;28;20086;-85
2021/03/10 09:45:32;;;;;;;1.95;1.85;;;19.50;99.90;;;;;;4970518;28;20038;-84
2021/03/10 09:47:57;;;;;;;2.83;1.75;;;19.50;99.90;;;;;;4969583;28;20027;-84
2021/03/10 09:50:36;;;;;;;1.02;1.00;;;19.70;99.90;;;;;;4970133;28;20045;-84
2021/03/10 09:53:17;;;;;;;4.63;1.75;;;20.90;99.90;;;;;;4968399;28;20042;-84
2021/03/10 09:55:43;;;;;;;1.50;1.40;;;19.30;99.90;;;;;;4960907;28;20043;-83
2021/03/10 09:58:11;;;;;;;0.73;0.73;;;19.90;99.90;;;;;;4966887;28;20110;-88
2021/03/10 10:00:38;;;;;;;21.98;4.18;;;21.50;99.90;;;;;;4969309;28;20022;-85
2021/03/10 10:03:04;;;;;;;4.78;3.97;;;19.60;99.90;;;;;;4970176;28;20101;-85
2021/03/10 10:05:35;;;;;;;3.53;3.13;;;19.00;99.90;;;;;;4964706;28;20035;-85
2021/03/10 10:08:06;;;;;;;3.95;2.22;;;18.40;99.90;;;;;;4970483;28;20035;-84
2021/03/10 10:13:08;;;;;;;3.15;2.85;;;23.10;96.60;;;;;;5326473;23;20053;-86
2021/03/10 10:15:34;;;;;;;2.15;1.80;;;23.00;97.80;;;;;;5027901;28;20064;-84
2021/03/10 10:18:02;;;;;;;1.58;1.48;;;19.70;96.50;;;;;;5018779;28;20117;-84
2021/03/10 10:20:31;;;;;;;1.48;1.38;;;19.30;99.90;;;;;;5013000;28;20026;-85
2021/03/10 10:22:57;;;;;;;1.60;1.50;;;19.90;99.90;;;;;;5024210;28;20045;-83
2021/03/10 10:25:23;;;;;;;1.17;1.17;;;18.60;98.80;;;;;;5026564;28;20480;-83
2021/03/10 10:27:50;;;;;;;1.83;1.43;;;19.40;99.90;;;;;;5009646;28;20053;-83
2021/03/10 10:30:18;;;;;;;5.55;2.47;;;18.40;99.90;;;;;;5008107;28;20064;-84
2021/03/10 10:32:49;;;;;;;1.02;1.02;;;19.10;99.90;;;;;;5024961;28;20021;-85
2021/03/10 10:35:16;;;;;;;1.40;1.20;;;17.90;99.90;;;;;;5019144;28;20041;-85
2021/03/10 10:37:42;;;;;;;1.13;1.13;;;17.50;99.90;;;;;;5022269;28;20033;-85
2021/03/10 10:40:10;;;;;;;0.88;0.88;;;20.40;99.50;;;;;;5017564;28;20034;-84
2021/03/10 10:42:37;;;;;;;1.02;0.85;;;19.20;98.70;;;;;;5023926;28;20496;-84
2021/03/10 10:45:07;;;;;;;6.03;3.87;;;18.80;99.60;;;;;;5027923;28;20096;-83
2021/03/10 10:47:33;;;;;;;2.95;1.85;;;18.40;98.60;;;;;;5026911;28;20021;-83
2021/03/10 10:50:07;;;;;;;1.73;1.63;;;17.70;99.70;;;;;;5021056;28;20025;-84
2021/03/10 10:52:33;;;;;;;3.63;1.52;;;19.50;98.30;;;;;;5014726;28;20410;-84
2021/03/10 10:55:00;;;;;;;3.97;1.63;;;20.50;96.70;;;;;;5009524;28;20022;-84
2021/03/10 10:57:26;;;;;;;3.05;2.00;;;17.30;98.10;;;;;;5019900;28;20120;-85
2021/03/10 10:59:52;;;;;;;5.63;2.22;;;20.30;96.40;;;;;;5026710;28;20130;-84
2021/03/10 11:02:17;;;;;;;1.23;1.13;;;21.50;95.60;;;;;;5019417;28;20026;-85
2021/03/10 11:04:44;;;;;;;1.85;1.75;;;19.80;98.60;;;;;;5008280;28;20032;-85
2021/03/10 11:07:09;;;;;;;1.60;1.50;;;20.00;95.50;;;;;;5025676;28;20024;-85
2021/03/10 11:09:40;;;;;;;4.45;2.03;;;21.40;95.60;;;;;;5027823;28;20636;-83
2021/03/10 11:12:08;;;;;;;1.75;1.17;;;19.10;95.40;;;;;;5017504;28;20037;-83
2021/03/10 11:14:35;;;;;;;2.20;1.77;;;18.20;98.00;;;;;;5012838;28;20026;-83
2021/03/10 11:17:01;;;;;;;2.50;2.15;;;19.70;98.70;;;;;;5014468;28;20137;-83
2021/03/10 11:19:27;;;;;;;2.08;1.95;;;18.30;99.90;;;;;;5014633;28;20064;-83
2021/03/10 11:21:52;;;;;;;1.63;1.52;;;19.20;99.20;;;;;;5016602;28;20442;-85
2021/03/10 11:24:18;;;;;;;2.72;2.03;;;17.70;98.80;;;;;;5022060;28;20671;-84
2021/03/10 11:26:44;;;;;;;1.50;1.43;;;17.80;99.90;;;;;;5014155;28;20025;-84
2021/03/10 11:29:12;;;;;;;12.67;1.77;;;20.40;97.50;;;;;;5008966;28;20022;-85
2021/03/10 11:31:38;;;;;;;1.48;1.48;;;21.10;96.50;;;;;;5012094;28;20358;-85
2021/03/10 11:34:05;;;;;;;3.00;2.28;;;18.40;96.30;;;;;;5012087;28;20524;-84
2021/03/10 11:36:32;;;;;;;3.58;2.70;;;17.40;98.40;;;;;;5007718;28;20495;-85
2021/03/10 11:38:58;;;;;;;3.80;2.47;;;17.30;99.50;;;;;;5009377;28;20065;-85
2021/03/10 11:41:23;;;;;;;1.63;1.42;;;18.20;98.60;;;;;;5011421;28;20065;-84
2021/03/10 11:43:50;;;;;;;2.78;1.48;;;17.80;99.00;;;;;;5008235;28;20026;-84
2021/03/10 11:46:16;;;;;;;2.05;1.95;;;18.00;99.40;;;;;;5011078;28;20790;-85
2021/03/10 11:48:42;;;;;;;4.32;2.42;;;17.70;99.90;;;;;;5009395;28;20121;-84
2021/03/10 11:51:08;;;;;;;1.35;1.25;;;15.60;99.90;;;;;;5014016;28;20105;-85
2021/03/10 11:53:34;;;;;;;1.75;1.40;;;14.60;99.90;;;;;;5013505;28;20053;-85
2021/03/10 11:56:00;;;;;;;2.20;1.98;;;13.80;99.90;;;;;;5014608;28;20044;-85
2021/03/10 11:58:27;;;;;;;3.47;2.03;;;14.10;99.90;;;;;;5011298;28;20494;-85
2021/03/10 12:00:55;;;;;;;2.70;2.38;;;13.90;99.90;;;;;;5013883;28;20026;-85
2021/03/10 12:03:22;;;;;;;2.25;1.52;;;13.40;99.90;;;;;;5013742;28;20544;-85
2021/03/10 12:05:48;;;;;;;2.20;2.10;;;12.90;99.90;;;;;;5007458;28;20747;-85
2021/03/10 12:08:15;;;;;;;2.38;2.17;;;12.60;99.90;;;;;;5011993;28;20099;-85
2021/03/10 12:13:16;;;;;;;0.93;0.93;;;13.90;99.90;;;;;;5213426;23;20055;-85
2021/03/10 12:15:42;;;;;;;2.58;1.52;;;13.20;99.90;;;;;;4955631;28;20090;-85
2021/03/10 12:18:08;;;;;;;4.18;2.92;;;13.70;99.90;;;;;;4959713;28;20488;-85
2021/03/10 12:20:35;;;;;;;1.70;1.60;;;12.90;99.90;;;;;;4962957;28;20145;-85
2021/03/10 12:23:01;;;;;;;2.15;2.03;;;13.30;99.90;;;;;;4966296;28;20066;-85
2021/03/10 12:25:28;;;;;;;2.53;1.10;;;13.20;99.90;;;;;;4966395;28;20023;-85
2021/03/10 12:27:57;;;;;;;1.45;1.35;;;12.60;99.90;;;;;;4959923;28;20073;-85
2021/03/10 12:30:23;;;;;;;2.90;1.10;;;13.40;99.90;;;;;;4963324;28;20034;-85
2021/03/10 12:32:50;;;;;;;3.10;1.70;;;13.10;99.90;;;;;;4969967;28;20027;-85
2021/03/10 12:35:16;;;;;;;0.77;0.77;;;13.40;99.90;;;;;;4963544;28;20062;-85
2021/03/10 12:37:42;;;;;;;2.50;1.42;;;12.70;99.90;;;;;;4968299;28;20022;-85
2021/03/10 12:40:09;;;;;;;2.27;1.17;;;13.30;99.90;;;;;;4964917;28;20030;-85
2021/03/10 12:42:35;;;;;;;1.25;1.20;;;12.50;99.90;;;;;;4962401;28;20038;-85
2021/03/10 12:45:03;;;;;;;1.92;1.25;;;13.20;99.90;;;;;;4962025;28;20112;-85
2021/03/10 12:47:30;;;;;;;1.38;1.13;;;13.70;99.90;;;;;;4968401;28;20026;-85
2021/03/10 12:49:59;;;;;;;2.42;2.22;;;13.70;99.90;;;;;;4955799;28;20102;-85
2021/03/10 12:52:25;;;;;;;1.75;0.65;;;13.60;99.90;;;;;;4963222;28;20031;-85
2021/03/10 12:54:51;;;;;;;0.80;0.80;;;12.50;99.90;;;;;;4980582;28;20069;-85
2021/03/10 12:57:17;;;;;;;1.38;1.33;;;12.60;99.90;;;;;;4954259;28;20063;-85
2021/03/10 12:59:43;;;;;;;4.00;2.07;;;12.60;99.90;;;;;;4960652;28;20383;-85
2021/03/10 13:02:08;;;;;;;2.63;2.42;;;13.20;99.90;;;;;;4962056;28;20035;-86
2021/03/10 13:04:34;;;;;;;6.63;1.02;;;13.10;99.90;;;;;;4953943;28;20034;-85